sensor_id;sensor_type;location;lat;lon;timestamp;temperature;humidity
20463;DHT22;10390;53.566;9.980;2023-03-21T00:01:50;23.40;1.00
20463;DHT22;10390;53.566;9.980;2023-03-21T00:04:16;23.30;1.00
20463;DHT22;10390;53.566;9.980;2023-03-21T00:06:42;23.40;1.00
20463;DHT22;10390;53.566;9.980;2023-03-21T00:09:08;23.30;1.00
20463;DHT22;10390;53.566;9.980;2023-03-21T00:11:33;23.30;1.00
20463;DHT22;10390;53.566;9.980;2023-03-21T00:13:59;23.30;1.00
20463;DHT22;10390;53.566;9.980;2023-03-21T00:16:27;23.30;1.00
20463;DHT22;10390;53.566;9.980;2023-03-21T00:18:55;23.30;1.00
20463;DHT22;10390;53.566;9.980;2023-03-21T00:21:23;23.30;1.00
20463;DHT22;10390;53.566;9.980;2023-03-21T00:23:57;23.30;1.00
20463;DHT22;10390;53.566;9.980;2023-03-21T00:26:23;23.30;1.00
20463;DHT22;10390;53.566;9.980;2023-03-21T00:28:49;23.30;1.00
20463;DHT22;10390;53.566;9.980;2023-03-21T00:31:15;23.30;1.00
20463;DHT22;10390;53.566;9.980;2023-03-21T00:33:41;23.30;1.00
20463;DHT22;10390;53.566;9.980;2023-03-21T00:36:08;23.30;1.00
20463;DHT22;10390;53.566;9.980;2023-03-21T00:38:35;23.30;1.00
20463;DHT22;10390;53.566;9.980;2023-03-21T00:41:08;23.30;1.00
20463;DHT22;10390;53.566;9.980;2023-03-21T00:43:35;23.30;1.00
20463;DHT22;10390;53.566;9.980;2023-03-21T00:46:00;23.30;1.00
20463;DHT22;10390;53.566;9.980;2023-03-21T00:48:27;23.30;1.00
20463;DHT22;10390;53.566;9.980;2023-03-21T00:50:55;23.30;1.00
20463;DHT22;10390;53.566;9.980;2023-03-21T00:53:21;23.30;1.00
20463;DHT22;10390;53.566;9.980;2023-03-21T00:55:48;23.30;1.00
20463;DHT22;10390;53.566;9.980;2023-03-21T00:58:14;23.30;1.00
20463;DHT22;10390;53.566;9.980;2023-03-21T01:00:40;23.30;1.00
20463;DHT22;10390;53.566;9.980;2023-03-21T01:03:08;23.20;1.00
20463;DHT22;10390;53.566;9.980;2023-03-21T01:05:37;23.30;1.00
20463;DHT22;10390;53.566;9.980;2023-03-21T01:08:22;23.30;1.00
20463;DHT22;10390;53.566;9.980;2023-03-21T01:10:49;23.20;1.00
20463;DHT22;10390;53.566;9.980;2023-03-21T01:13:17;23.20;1.00
20463;DHT22;10390;53.566;9.980;2023-03-21T01:15:46;23.30;1.00
20463;DHT22;10390;53.566;9.980;2023-03-21T01:18:13;23.20;1.00
20463;DHT22;10390;53.566;9.980;2023-03-21T01:20:43;23.30;1.00
20463;DHT22;10390;53.566;9.980;2023-03-21T01:23:11;23.20;1.00
20463;DHT22;10390;53.566;9.980;2023-03-21T01:25:37;23.20;1.00
20463;DHT22;10390;53.566;9.980;2023-03-21T01:28:03;23.20;1.00
20463;DHT22;10390;53.566;9.980;2023-03-21T01:30:29;23.30;1.00
20463;DHT22;10390;53.566;9.980;2023-03-21T01:32:56;23.20;1.00
20463;DHT22;10390;53.566;9.980;2023-03-21T01:35:22;23.20;1.00
20463;DHT22;10390;53.566;9.980;2023-03-21T01:37:48;23.20;1.00
20463;DHT22;10390;53.566;9.980;2023-03-21T01:40:20;23.20;1.00
20463;DHT22;10390;53.566;9.980;2023-03-21T01:42:46;23.20;1.00
20463;DHT22;10390;53.566;9.980;2023-03-21T01:48:16;23.20;1.00
20463;DHT22;10390;53.566;9.980;2023-03-21T01:50:43;23.20;1.00
20463;DHT22;10390;53.566;9.980;2023-03-21T01:53:09;23.20;1.00
20463;DHT22;10390;53.566;9.980;2023-03-21T01:55:35;23.20;1.00
20463;DHT22;10390;53.566;9.980;2023-03-21T01:58:02;23.20;1.00
20463;DHT22;10390;53.566;9.980;2023-03-21T02:00:29;23.20;1.00
20463;DHT22;10390;53.566;9.980;2023-03-21T02:02:58;23.20;1.00
20463;DHT22;10390;53.566;9.980;2023-03-21T02:08:22;23.20;1.00
20463;DHT22;10390;53.566;9.980;2023-03-21T02:10:48;23.20;1.00
20463;DHT22;10390;53.566;9.980;2023-03-21T02:13:15;23.20;1.00
20463;DHT22;10390;53.566;9.980;2023-03-21T02:15:45;23.10;1.00
20463;DHT22;10390;53.566;9.980;2023-03-21T02:18:30;23.20;1.00
20463;DHT22;10390;53.566;9.980;2023-03-21T02:21:28;23.20;1.00
20463;DHT22;10390;53.566;9.980;2023-03-21T02:27:12;23.10;1.00
20463;DHT22;10390;53.566;9.980;2023-03-21T02:30:40;23.10;1.00
20463;DHT22;10390;53.566;9.980;2023-03-21T02:35:25;23.10;1.00
20463;DHT22;10390;53.566;9.980;2023-03-21T02:37:55;23.10;1.00
20463;DHT22;10390;53.566;9.980;2023-03-21T02:40:38;23.10;1.00
20463;DHT22;10390;53.566;9.980;2023-03-21T02:43:22;23.10;1.00
20463;DHT22;10390;53.566;9.980;2023-03-21T02:45:59;23.10;1.00
20463;DHT22;10390;53.566;9.980;2023-03-21T02:48:33;23.10;1.00
20463;DHT22;10390;53.566;9.980;2023-03-21T02:51:01;23.10;1.00
20463;DHT22;10390;53.566;9.980;2023-03-21T02:53:32;23.10;1.00
20463;DHT22;10390;53.566;9.980;2023-03-21T02:55:59;23.10;1.00
20463;DHT22;10390;53.566;9.980;2023-03-21T02:58:27;23.10;1.00
20463;DHT22;10390;53.566;9.980;2023-03-21T03:00:54;23.10;1.00
20463;DHT22;10390;53.566;9.980;2023-03-21T03:03:21;23.10;1.00
20463;DHT22;10390;53.566;9.980;2023-03-21T03:05:52;23.10;1.00
20463;DHT22;10390;53.566;9.980;2023-03-21T03:08:31;23.10;1.00
20463;DHT22;10390;53.566;9.980;2023-03-21T03:19:36;23.10;1.00
20463;DHT22;10390;53.566;9.980;2023-03-21T03:22:13;23.10;1.00
20463;DHT22;10390;53.566;9.980;2023-03-21T03:25:07;23.10;1.00
20463;DHT22;10390;53.566;9.980;2023-03-21T03:27:39;23.10;1.00
20463;DHT22;10390;53.566;9.980;2023-03-21T03:30:08;23.10;1.00
20463;DHT22;10390;53.566;9.980;2023-03-21T03:32:47;23.10;1.00
20463;DHT22;10390;53.566;9.980;2023-03-21T03:35:16;23.10;1.00
20463;DHT22;10390;53.566;9.980;2023-03-21T03:37:46;23.10;1.00
20463;DHT22;10390;53.566;9.980;2023-03-21T03:40:19;23.10;1.00
20463;DHT22;10390;53.566;9.980;2023-03-21T03:42:51;23.10;1.00
20463;DHT22;10390;53.566;9.980;2023-03-21T03:45:18;23.10;1.00
20463;DHT22;10390;53.566;9.980;2023-03-21T03:47:54;23.10;1.00
20463;DHT22;10390;53.566;9.980;2023-03-21T03:50:33;23.10;1.00
20463;DHT22;10390;53.566;9.980;2023-03-21T03:53:10;23.10;1.00
20463;DHT22;10390;53.566;9.980;2023-03-21T03:55:38;23.20;1.00
20463;DHT22;10390;53.566;9.980;2023-03-21T03:58:04;23.10;1.00
20463;DHT22;10390;53.566;9.980;2023-03-21T04:00:33;23.20;1.00
20463;DHT22;10390;53.566;9.980;2023-03-21T04:02:59;23.10;1.00
20463;DHT22;10390;53.566;9.980;2023-03-21T04:05:25;23.10;1.00
20463;DHT22;10390;53.566;9.980;2023-03-21T04:07:51;23.10;1.00
20463;DHT22;10390;53.566;9.980;2023-03-21T04:10:18;23.10;1.00
20463;DHT22;10390;53.566;9.980;2023-03-21T04:12:43;23.10;1.00
20463;DHT22;10390;53.566;9.980;2023-03-21T04:15:10;23.10;1.00
20463;DHT22;10390;53.566;9.980;2023-03-21T04:17:36;23.10;1.00
20463;DHT22;10390;53.566;9.980;2023-03-21T04:20:02;23.10;1.00
20463;DHT22;10390;53.566;9.980;2023-03-21T04:22:30;23.10;1.00
20463;DHT22;10390;53.566;9.980;2023-03-21T04:24:58;23.10;1.00
20463;DHT22;10390;53.566;9.980;2023-03-21T04:27:26;23.10;1.00
20463;DHT22;10390;53.566;9.980;2023-03-21T04:29:51;23.10;1.00
20463;DHT22;10390;53.566;9.980;2023-03-21T04:32:17;23.10;1.00
20463;DHT22;10390;53.566;9.980;2023-03-21T04:34:45;23.20;1.00
20463;DHT22;10390;53.566;9.980;2023-03-21T04:37:16;23.10;1.00
20463;DHT22;10390;53.566;9.980;2023-03-21T04:39:42;23.10;1.00
20463;DHT22;10390;53.566;9.980;2023-03-21T04:42:07;23.10;1.00
20463;DHT22;10390;53.566;9.980;2023-03-21T04:44:33;23.10;1.00
20463;DHT22;10390;53.566;9.980;2023-03-21T04:46:58;23.10;1.00
20463;DHT22;10390;53.566;9.980;2023-03-21T04:49:24;23.30;1.00
20463;DHT22;10390;53.566;9.980;2023-03-21T04:51:50;23.10;1.00
20463;DHT22;10390;53.566;9.980;2023-03-21T04:54:16;23.10;1.00
20463;DHT22;10390;53.566;9.980;2023-03-21T04:56:42;23.10;1.00
20463;DHT22;10390;53.566;9.980;2023-03-21T04:59:12;23.10;1.00
20463;DHT22;10390;53.566;9.980;2023-03-21T05:01:38;23.10;1.00
20463;DHT22;10390;53.566;9.980;2023-03-21T05:04:05;23.10;1.00
20463;DHT22;10390;53.566;9.980;2023-03-21T05:06:31;23.10;1.00
20463;DHT22;10390;53.566;9.980;2023-03-21T05:08:58;23.10;1.00
20463;DHT22;10390;53.566;9.980;2023-03-21T05:11:30;23.10;1.00
20463;DHT22;10390;53.566;9.980;2023-03-21T05:13:57;23.10;1.00
20463;DHT22;10390;53.566;9.980;2023-03-21T05:16:23;23.10;1.00
20463;DHT22;10390;53.566;9.980;2023-03-21T05:18:54;23.10;1.00
20463;DHT22;10390;53.566;9.980;2023-03-21T05:21:22;23.10;1.00
20463;DHT22;10390;53.566;9.980;2023-03-21T05:23:48;23.10;1.00
20463;DHT22;10390;53.566;9.980;2023-03-21T05:26:20;23.10;1.00
20463;DHT22;10390;53.566;9.980;2023-03-21T05:28:46;23.10;1.00
20463;DHT22;10390;53.566;9.980;2023-03-21T05:31:13;23.10;1.00
20463;DHT22;10390;53.566;9.980;2023-03-21T05:33:41;23.00;1.00
20463;DHT22;10390;53.566;9.980;2023-03-21T05:36:07;23.10;1.00
20463;DHT22;10390;53.566;9.980;2023-03-21T05:38:33;23.10;1.00
20463;DHT22;10390;53.566;9.980;2023-03-21T05:40:59;23.00;1.00
20463;DHT22;10390;53.566;9.980;2023-03-21T05:43:25;23.00;1.00
20463;DHT22;10390;53.566;9.980;2023-03-21T05:45:51;23.00;1.00
20463;DHT22;10390;53.566;9.980;2023-03-21T05:48:17;23.00;1.00
20463;DHT22;10390;53.566;9.980;2023-03-21T05:50:42;23.00;1.00
20463;DHT22;10390;53.566;9.980;2023-03-21T05:53:08;23.00;1.00
20463;DHT22;10390;53.566;9.980;2023-03-21T05:55:34;23.00;1.00
20463;DHT22;10390;53.566;9.980;2023-03-21T05:57:59;23.00;1.00
20463;DHT22;10390;53.566;9.980;2023-03-21T06:00:25;23.00;1.00
20463;DHT22;10390;53.566;9.980;2023-03-21T06:02:51;23.00;1.00
20463;DHT22;10390;53.566;9.980;2023-03-21T06:05:16;23.00;1.00
20463;DHT22;10390;53.566;9.980;2023-03-21T06:07:42;23.00;1.00
20463;DHT22;10390;53.566;9.980;2023-03-21T06:10:08;23.00;1.00
20463;DHT22;10390;53.566;9.980;2023-03-21T06:12:34;23.10;1.00
20463;DHT22;10390;53.566;9.980;2023-03-21T06:15:01;23.00;1.00
20463;DHT22;10390;53.566;9.980;2023-03-21T06:17:26;23.00;1.00
20463;DHT22;10390;53.566;9.980;2023-03-21T06:19:52;23.00;1.00
20463;DHT22;10390;53.566;9.980;2023-03-21T06:22:18;23.10;1.00
20463;DHT22;10390;53.566;9.980;2023-03-21T06:24:43;23.00;1.00
20463;DHT22;10390;53.566;9.980;2023-03-21T06:27:09;23.00;1.00
20463;DHT22;10390;53.566;9.980;2023-03-21T06:29:35;23.00;1.00
20463;DHT22;10390;53.566;9.980;2023-03-21T06:32:00;23.00;1.00
20463;DHT22;10390;53.566;9.980;2023-03-21T06:34:26;23.00;1.00
20463;DHT22;10390;53.566;9.980;2023-03-21T06:36:52;23.00;1.00
20463;DHT22;10390;53.566;9.980;2023-03-21T06:39:19;23.00;1.00
20463;DHT22;10390;53.566;9.980;2023-03-21T06:41:45;23.00;1.00
20463;DHT22;10390;53.566;9.980;2023-03-21T06:44:11;23.00;1.00
20463;DHT22;10390;53.566;9.980;2023-03-21T06:46:36;23.00;1.00
20463;DHT22;10390;53.566;9.980;2023-03-21T06:49:02;23.00;1.00
20463;DHT22;10390;53.566;9.980;2023-03-21T06:51:28;23.00;1.00
20463;DHT22;10390;53.566;9.980;2023-03-21T06:53:54;23.00;1.00
20463;DHT22;10390;53.566;9.980;2023-03-21T06:56:19;23.00;1.00
20463;DHT22;10390;53.566;9.980;2023-03-21T06:58:45;23.00;1.00
20463;DHT22;10390;53.566;9.980;2023-03-21T07:01:11;23.00;1.00
20463;DHT22;10390;53.566;9.980;2023-03-21T07:03:38;23.00;1.00
20463;DHT22;10390;53.566;9.980;2023-03-21T07:06:09;23.00;1.00
20463;DHT22;10390;53.566;9.980;2023-03-21T07:08:39;23.00;1.00
20463;DHT22;10390;53.566;9.980;2023-03-21T07:11:05;23.00;1.00
20463;DHT22;10390;53.566;9.980;2023-03-21T07:13:31;23.00;1.00
20463;DHT22;10390;53.566;9.980;2023-03-21T07:15:57;23.00;1.00
20463;DHT22;10390;53.566;9.980;2023-03-21T07:18:23;23.00;1.00
20463;DHT22;10390;53.566;9.980;2023-03-21T07:20:50;23.00;1.00
20463;DHT22;10390;53.566;9.980;2023-03-21T07:23:20;23.00;1.00
20463;DHT22;10390;53.566;9.980;2023-03-21T07:25:47;23.00;1.00
20463;DHT22;10390;53.566;9.980;2023-03-21T07:28:14;23.00;1.00
20463;DHT22;10390;53.566;9.980;2023-03-21T07:30:39;23.00;1.00
20463;DHT22;10390;53.566;9.980;2023-03-21T07:33:05;23.00;1.00
20463;DHT22;10390;53.566;9.980;2023-03-21T07:35:32;23.00;1.00
20463;DHT22;10390;53.566;9.980;2023-03-21T07:37:58;23.00;1.00
20463;DHT22;10390;53.566;9.980;2023-03-21T07:40:24;23.00;1.00
20463;DHT22;10390;53.566;9.980;2023-03-21T07:42:49;23.00;1.00
20463;DHT22;10390;53.566;9.980;2023-03-21T07:45:15;23.00;1.00
20463;DHT22;10390;53.566;9.980;2023-03-21T07:47:46;23.00;1.00
20463;DHT22;10390;53.566;9.980;2023-03-21T07:50:12;23.00;1.00
20463;DHT22;10390;53.566;9.980;2023-03-21T07:52:38;23.00;1.00
20463;DHT22;10390;53.566;9.980;2023-03-21T07:55:04;23.00;1.00
20463;DHT22;10390;53.566;9.980;2023-03-21T07:57:31;23.00;1.00
20463;DHT22;10390;53.566;9.980;2023-03-21T07:59:56;23.00;1.00
20463;DHT22;10390;53.566;9.980;2023-03-21T08:02:22;23.00;1.00
20463;DHT22;10390;53.566;9.980;2023-03-21T08:04:48;23.00;1.00
20463;DHT22;10390;53.566;9.980;2023-03-21T08:07:13;22.90;1.00
20463;DHT22;10390;53.566;9.980;2023-03-21T08:09:39;22.90;1.00
20463;DHT22;10390;53.566;9.980;2023-03-21T08:12:05;23.00;1.00
20463;DHT22;10390;53.566;9.980;2023-03-21T08:14:33;23.00;1.00
20463;DHT22;10390;53.566;9.980;2023-03-21T08:16:59;22.90;1.00
20463;DHT22;10390;53.566;9.980;2023-03-21T08:19:25;23.00;1.00
20463;DHT22;10390;53.566;9.980;2023-03-21T08:21:51;23.00;1.00
20463;DHT22;10390;53.566;9.980;2023-03-21T08:24:18;22.90;1.00
20463;DHT22;10390;53.566;9.980;2023-03-21T08:26:44;23.00;1.00
20463;DHT22;10390;53.566;9.980;2023-03-21T08:29:11;23.00;1.00
20463;DHT22;10390;53.566;9.980;2023-03-21T08:31:39;23.00;1.00
20463;DHT22;10390;53.566;9.980;2023-03-21T08:34:04;23.00;1.00
20463;DHT22;10390;53.566;9.980;2023-03-21T08:36:30;23.00;1.00
20463;DHT22;10390;53.566;9.980;2023-03-21T08:38:56;23.00;1.00
20463;DHT22;10390;53.566;9.980;2023-03-21T08:41:33;23.00;1.00
20463;DHT22;10390;53.566;9.980;2023-03-21T08:43:59;23.00;1.00
20463;DHT22;10390;53.566;9.980;2023-03-21T08:46:26;23.00;1.00
20463;DHT22;10390;53.566;9.980;2023-03-21T08:48:52;23.00;1.00
20463;DHT22;10390;53.566;9.980;2023-03-21T08:51:18;23.00;1.00
20463;DHT22;10390;53.566;9.980;2023-03-21T08:53:44;23.00;1.00
20463;DHT22;10390;53.566;9.980;2023-03-21T08:56:10;23.00;1.00
20463;DHT22;10390;53.566;9.980;2023-03-21T08:58:36;23.00;1.00
20463;DHT22;10390;53.566;9.980;2023-03-21T09:01:02;23.00;1.00
20463;DHT22;10390;53.566;9.980;2023-03-21T09:03:28;22.90;1.00
20463;DHT22;10390;53.566;9.980;2023-03-21T09:05:55;23.00;1.00
20463;DHT22;10390;53.566;9.980;2023-03-21T09:08:21;23.00;1.00
20463;DHT22;10390;53.566;9.980;2023-03-21T09:10:48;23.00;1.00
20463;DHT22;10390;53.566;9.980;2023-03-21T09:13:16;23.00;1.00
20463;DHT22;10390;53.566;9.980;2023-03-21T09:15:42;23.00;1.00
20463;DHT22;10390;53.566;9.980;2023-03-21T09:18:08;23.00;1.00
20463;DHT22;10390;53.566;9.980;2023-03-21T09:20:44;23.00;1.00
20463;DHT22;10390;53.566;9.980;2023-03-21T09:23:11;23.00;1.00
20463;DHT22;10390;53.566;9.980;2023-03-21T09:25:39;23.00;1.00
20463;DHT22;10390;53.566;9.980;2023-03-21T09:28:05;23.00;1.00
20463;DHT22;10390;53.566;9.980;2023-03-21T09:30:34;23.00;1.00
20463;DHT22;10390;53.566;9.980;2023-03-21T09:33:01;23.00;1.00
20463;DHT22;10390;53.566;9.980;2023-03-21T09:35:28;23.00;1.00
20463;DHT22;10390;53.566;9.980;2023-03-21T09:37:54;23.00;1.00
20463;DHT22;10390;53.566;9.980;2023-03-21T09:43:46;23.00;1.00
20463;DHT22;10390;53.566;9.980;2023-03-21T09:46:26;23.00;1.00
20463;DHT22;10390;53.566;9.980;2023-03-21T09:49:06;23.00;1.00
20463;DHT22;10390;53.566;9.980;2023-03-21T09:51:38;23.00;1.00
20463;DHT22;10390;53.566;9.980;2023-03-21T09:54:36;23.00;1.00
20463;DHT22;10390;53.566;9.980;2023-03-21T09:57:24;23.00;1.00
20463;DHT22;10390;53.566;9.980;2023-03-21T09:59:51;23.00;1.00
20463;DHT22;10390;53.566;9.980;2023-03-21T10:02:35;23.00;1.00
20463;DHT22;10390;53.566;9.980;2023-03-21T10:05:17;22.90;1.00
20463;DHT22;10390;53.566;9.980;2023-03-21T10:08:00;23.00;1.00
20463;DHT22;10390;53.566;9.980;2023-03-21T10:10:33;22.90;1.00
20463;DHT22;10390;53.566;9.980;2023-03-21T10:13:01;23.00;1.00
20463;DHT22;10390;53.566;9.980;2023-03-21T10:15:27;22.90;1.00
20463;DHT22;10390;53.566;9.980;2023-03-21T10:17:57;22.90;1.00
20463;DHT22;10390;53.566;9.980;2023-03-21T10:20:31;23.00;1.00
20463;DHT22;10390;53.566;9.980;2023-03-21T10:22:58;23.00;1.00
20463;DHT22;10390;53.566;9.980;2023-03-21T10:27:54;23.00;1.00
20463;DHT22;10390;53.566;9.980;2023-03-21T10:30:35;23.00;1.00
20463;DHT22;10390;53.566;9.980;2023-03-21T10:33:04;22.90;1.00
20463;DHT22;10390;53.566;9.980;2023-03-21T10:35:34;23.00;1.00
20463;DHT22;10390;53.566;9.980;2023-03-21T10:38:02;23.00;1.00
20463;DHT22;10390;53.566;9.980;2023-03-21T10:40:29;23.00;1.00
20463;DHT22;10390;53.566;9.980;2023-03-21T10:42:55;23.00;1.00
20463;DHT22;10390;53.566;9.980;2023-03-21T10:45:22;23.00;1.00
20463;DHT22;10390;53.566;9.980;2023-03-21T10:47:49;23.00;1.00
20463;DHT22;10390;53.566;9.980;2023-03-21T10:50:19;23.00;1.00
20463;DHT22;10390;53.566;9.980;2023-03-21T10:52:50;23.00;1.00
20463;DHT22;10390;53.566;9.980;2023-03-21T10:55:24;23.00;1.00
20463;DHT22;10390;53.566;9.980;2023-03-21T10:57:56;23.00;1.00
20463;DHT22;10390;53.566;9.980;2023-03-21T11:00:27;23.00;1.00
20463;DHT22;10390;53.566;9.980;2023-03-21T11:02:54;23.00;1.00
20463;DHT22;10390;53.566;9.980;2023-03-21T11:05:24;23.00;1.00
20463;DHT22;10390;53.566;9.980;2023-03-21T11:07:59;23.00;1.00
20463;DHT22;10390;53.566;9.980;2023-03-21T11:10:47;23.00;1.00
20463;DHT22;10390;53.566;9.980;2023-03-21T11:13:23;23.00;1.00
20463;DHT22;10390;53.566;9.980;2023-03-21T11:15:55;23.00;1.00
20463;DHT22;10390;53.566;9.980;2023-03-21T11:18:24;23.00;1.00
20463;DHT22;10390;53.566;9.980;2023-03-21T11:20:54;23.00;1.00
20463;DHT22;10390;53.566;9.980;2023-03-21T11:23:22;23.00;1.00
20463;DHT22;10390;53.566;9.980;2023-03-21T11:25:50;23.00;1.00
20463;DHT22;10390;53.566;9.980;2023-03-21T11:28:19;23.00;1.00
20463;DHT22;10390;53.566;9.980;2023-03-21T11:30:57;23.00;1.00
20463;DHT22;10390;53.566;9.980;2023-03-21T11:33:32;23.00;1.00
20463;DHT22;10390;53.566;9.980;2023-03-21T11:36:06;23.00;1.00
20463;DHT22;10390;53.566;9.980;2023-03-21T11:38:37;23.00;1.00
20463;DHT22;10390;53.566;9.980;2023-03-21T11:41:04;23.00;1.00
20463;DHT22;10390;53.566;9.980;2023-03-21T11:43:34;23.00;1.00
20463;DHT22;10390;53.566;9.980;2023-03-21T11:48:37;23.00;1.00
20463;DHT22;10390;53.566;9.980;2023-03-21T11:51:10;23.00;1.00
20463;DHT22;10390;53.566;9.980;2023-03-21T11:53:48;23.00;1.00
20463;DHT22;10390;53.566;9.980;2023-03-21T11:56:31;23.00;1.00
20463;DHT22;10390;53.566;9.980;2023-03-21T12:18:08;23.00;1.00
20463;DHT22;10390;53.566;9.980;2023-03-21T12:26:19;23.00;1.00
20463;DHT22;10390;53.566;9.980;2023-03-21T12:32:09;23.00;1.00
20463;DHT22;10390;53.566;9.980;2023-03-21T12:34:45;23.00;1.00
20463;DHT22;10390;53.566;9.980;2023-03-21T12:39:46;23.00;1.00
20463;DHT22;10390;53.566;9.980;2023-03-21T12:44:48;23.00;1.00
20463;DHT22;10390;53.566;9.980;2023-03-21T12:47:20;23.00;1.00
20463;DHT22;10390;53.566;9.980;2023-03-21T12:50:04;23.00;1.00
20463;DHT22;10390;53.566;9.980;2023-03-21T12:52:46;23.00;1.00
20463;DHT22;10390;53.566;9.980;2023-03-21T12:55:18;23.00;1.00
20463;DHT22;10390;53.566;9.980;2023-03-21T13:00:41;23.00;1.00
20463;DHT22;10390;53.566;9.980;2023-03-21T13:03:09;23.00;1.00
20463;DHT22;10390;53.566;9.980;2023-03-21T13:05:49;23.00;1.00
20463;DHT22;10390;53.566;9.980;2023-03-21T13:11:02;23.00;1.00
20463;DHT22;10390;53.566;9.980;2023-03-21T13:13:53;23.00;1.00
20463;DHT22;10390;53.566;9.980;2023-03-21T13:27:47;23.00;1.00
20463;DHT22;10390;53.566;9.980;2023-03-21T13:32:38;23.00;1.00
20463;DHT22;10390;53.566;9.980;2023-03-21T13:37:42;23.00;1.00
20463;DHT22;10390;53.566;9.980;2023-03-21T13:40:47;23.00;1.00
20463;DHT22;10390;53.566;9.980;2023-03-21T13:43:41;23.00;1.00
20463;DHT22;10390;53.566;9.980;2023-03-21T13:59:16;23.00;1.00
20463;DHT22;10390;53.566;9.980;2023-03-21T14:04:42;23.00;1.00
20463;DHT22;10390;53.566;9.980;2023-03-21T14:07:12;23.00;1.00
20463;DHT22;10390;53.566;9.980;2023-03-21T14:09:53;23.00;1.00
20463;DHT22;10390;53.566;9.980;2023-03-21T14:12:27;23.00;1.00
20463;DHT22;10390;53.566;9.980;2023-03-21T14:14:58;23.00;1.00
20463;DHT22;10390;53.566;9.980;2023-03-21T14:17:28;23.00;1.00
20463;DHT22;10390;53.566;9.980;2023-03-21T14:20:14;22.90;1.00
20463;DHT22;10390;53.566;9.980;2023-03-21T14:22:46;23.00;1.00
20463;DHT22;10390;53.566;9.980;2023-03-21T14:25:14;23.00;1.00
20463;DHT22;10390;53.566;9.980;2023-03-21T14:27:49;23.00;1.00
20463;DHT22;10390;53.566;9.980;2023-03-21T14:30:24;23.00;1.00
20463;DHT22;10390;53.566;9.980;2023-03-21T14:33:00;23.00;1.00
20463;DHT22;10390;53.566;9.980;2023-03-21T14:35:29;23.00;1.00
20463;DHT22;10390;53.566;9.980;2023-03-21T14:38:06;23.00;1.00
20463;DHT22;10390;53.566;9.980;2023-03-21T14:40:35;23.00;1.00
20463;DHT22;10390;53.566;9.980;2023-03-21T14:43:05;23.00;1.00
20463;DHT22;10390;53.566;9.980;2023-03-21T14:45:33;23.00;1.00
20463;DHT22;10390;53.566;9.980;2023-03-21T14:48:04;23.00;1.00
20463;DHT22;10390;53.566;9.980;2023-03-21T14:50:40;23.00;1.00
20463;DHT22;10390;53.566;9.980;2023-03-21T14:53:13;23.00;1.00
20463;DHT22;10390;53.566;9.980;2023-03-21T14:55:42;23.00;1.00
20463;DHT22;10390;53.566;9.980;2023-03-21T14:58:12;23.00;1.00
20463;DHT22;10390;53.566;9.980;2023-03-21T15:00:40;23.00;1.00
20463;DHT22;10390;53.566;9.980;2023-03-21T15:03:06;23.00;1.00
20463;DHT22;10390;53.566;9.980;2023-03-21T15:05:35;23.00;1.00
20463;DHT22;10390;53.566;9.980;2023-03-21T15:10:36;23.00;1.00
20463;DHT22;10390;53.566;9.980;2023-03-21T15:13:13;23.10;1.00
20463;DHT22;10390;53.566;9.980;2023-03-21T15:15:39;23.00;1.00
20463;DHT22;10390;53.566;9.980;2023-03-21T15:18:06;23.00;1.00
20463;DHT22;10390;53.566;9.980;2023-03-21T15:20:35;23.00;1.00
20463;DHT22;10390;53.566;9.980;2023-03-21T15:23:26;23.00;1.00
20463;DHT22;10390;53.566;9.980;2023-03-21T15:25:54;23.00;1.00
20463;DHT22;10390;53.566;9.980;2023-03-21T15:28:20;23.00;1.00
20463;DHT22;10390;53.566;9.980;2023-03-21T15:30:50;23.00;1.00
20463;DHT22;10390;53.566;9.980;2023-03-21T15:33:17;23.00;1.00
20463;DHT22;10390;53.566;9.980;2023-03-21T15:35:48;23.00;1.00
20463;DHT22;10390;53.566;9.980;2023-03-21T15:38:32;23.00;1.00
20463;DHT22;10390;53.566;9.980;2023-03-21T15:46:41;23.00;1.00
20463;DHT22;10390;53.566;9.980;2023-03-21T15:51:45;23.00;1.00
20463;DHT22;10390;53.566;9.980;2023-03-21T15:54:19;23.00;1.00
20463;DHT22;10390;53.566;9.980;2023-03-21T15:56:46;23.00;1.00
20463;DHT22;10390;53.566;9.980;2023-03-21T15:59:16;23.00;1.00
20463;DHT22;10390;53.566;9.980;2023-03-21T16:01:48;23.00;1.00
20463;DHT22;10390;53.566;9.980;2023-03-21T16:04:15;23.00;1.00
20463;DHT22;10390;53.566;9.980;2023-03-21T16:07:01;23.10;1.00
20463;DHT22;10390;53.566;9.980;2023-03-21T16:09:38;23.00;1.00
20463;DHT22;10390;53.566;9.980;2023-03-21T16:12:10;23.00;1.00
20463;DHT22;10390;53.566;9.980;2023-03-21T16:14:37;23.00;1.00
20463;DHT22;10390;53.566;9.980;2023-03-21T16:20:15;22.90;1.00
20463;DHT22;10390;53.566;9.980;2023-03-21T16:22:45;22.90;1.00
20463;DHT22;10390;53.566;9.980;2023-03-21T16:25:11;23.00;1.00
20463;DHT22;10390;53.566;9.980;2023-03-21T16:27:36;23.00;1.00
20463;DHT22;10390;53.566;9.980;2023-03-21T16:30:02;23.10;1.00
20463;DHT22;10390;53.566;9.980;2023-03-21T16:32:28;23.20;1.00
20463;DHT22;10390;53.566;9.980;2023-03-21T16:34:54;23.30;1.00
20463;DHT22;10390;53.566;9.980;2023-03-21T16:37:19;23.40;1.00
20463;DHT22;10390;53.566;9.980;2023-03-21T16:39:46;23.40;1.00
20463;DHT22;10390;53.566;9.980;2023-03-21T16:42:11;23.60;1.00
20463;DHT22;10390;53.566;9.980;2023-03-21T16:44:38;23.70;1.00
20463;DHT22;10390;53.566;9.980;2023-03-21T16:47:13;23.70;1.00
20463;DHT22;10390;53.566;9.980;2023-03-21T16:49:38;23.80;1.00
20463;DHT22;10390;53.566;9.980;2023-03-21T16:52:04;24.00;1.00
20463;DHT22;10390;53.566;9.980;2023-03-21T16:54:30;24.10;1.00
20463;DHT22;10390;53.566;9.980;2023-03-21T16:56:57;24.20;1.00
20463;DHT22;10390;53.566;9.980;2023-03-21T16:59:24;24.30;1.00
20463;DHT22;10390;53.566;9.980;2023-03-21T17:01:49;24.30;1.00
20463;DHT22;10390;53.566;9.980;2023-03-21T17:04:17;24.40;1.00
20463;DHT22;10390;53.566;9.980;2023-03-21T17:06:45;24.50;1.00
20463;DHT22;10390;53.566;9.980;2023-03-21T17:09:13;24.60;1.00
20463;DHT22;10390;53.566;9.980;2023-03-21T17:11:38;24.70;1.00
20463;DHT22;10390;53.566;9.980;2023-03-21T17:14:10;24.80;1.00
20463;DHT22;10390;53.566;9.980;2023-03-21T17:16:36;24.80;1.00
20463;DHT22;10390;53.566;9.980;2023-03-21T17:19:15;24.90;1.00
20463;DHT22;10390;53.566;9.980;2023-03-21T17:21:41;25.00;1.00
20463;DHT22;10390;53.566;9.980;2023-03-21T17:24:07;25.00;1.00
20463;DHT22;10390;53.566;9.980;2023-03-21T17:26:33;25.10;1.00
20463;DHT22;10390;53.566;9.980;2023-03-21T17:28:59;25.20;1.00
20463;DHT22;10390;53.566;9.980;2023-03-21T17:31:26;25.20;1.00
20463;DHT22;10390;53.566;9.980;2023-03-21T17:33:53;25.30;1.00
20463;DHT22;10390;53.566;9.980;2023-03-21T17:36:30;25.30;1.00
20463;DHT22;10390;53.566;9.980;2023-03-21T17:38:56;25.30;1.00
20463;DHT22;10390;53.566;9.980;2023-03-21T17:41:22;25.40;1.00
20463;DHT22;10390;53.566;9.980;2023-03-21T17:43:47;25.40;1.00
20463;DHT22;10390;53.566;9.980;2023-03-21T17:46:25;25.50;1.00
20463;DHT22;10390;53.566;9.980;2023-03-21T17:48:52;25.50;1.00
20463;DHT22;10390;53.566;9.980;2023-03-21T17:51:18;25.50;1.00
20463;DHT22;10390;53.566;9.980;2023-03-21T17:53:46;25.50;1.00